sensor_id;sensor_type;location;lat;lon;timestamp;P1;durP1;ratioP1;P2;durP2;ratioP2
9188;SDS011;34313;50.780;6.084;2023-06-14T00:00:32;8.20;;;6.87;;
9188;SDS011;34313;50.780;6.084;2023-06-14T00:02:59;7.47;;;6.70;;
9188;SDS011;34313;50.780;6.084;2023-06-14T00:05:24;8.37;;;6.97;;
9188;SDS011;34313;50.780;6.084;2023-06-14T00:07:50;15.07;;;7.40;;
9188;SDS011;34313;50.780;6.084;2023-06-14T00:10:18;10.20;;;7.03;;
9188;SDS011;34313;50.780;6.084;2023-06-14T00:12:44;8.07;;;7.27;;
9188;SDS011;34313;50.780;6.084;2023-06-14T00:15:09;9.70;;;7.33;;
9188;SDS011;34313;50.780;6.084;2023-06-14T00:17:35;10.67;;;6.80;;
9188;SDS011;34313;50.780;6.084;2023-06-14T00:20:02;10.70;;;7.43;;
9188;SDS011;34313;50.780;6.084;2023-06-14T00:22:30;11.47;;;7.20;;
9188;SDS011;34313;50.780;6.084;2023-06-14T00:24:56;8.10;;;7.27;;
9188;SDS011;34313;50.780;6.084;2023-06-14T00:27:22;12.10;;;7.80;;
9188;SDS011;34313;50.780;6.084;2023-06-14T00:29:47;10.50;;;7.77;;
9188;SDS011;34313;50.780;6.084;2023-06-14T00:32:12;10.10;;;7.30;;
9188;SDS011;34313;50.780;6.084;2023-06-14T00:34:37;8.80;;;7.33;;
9188;SDS011;34313;50.780;6.084;2023-06-14T00:37:03;11.23;;;7.10;;
9188;SDS011;34313;50.780;6.084;2023-06-14T00:39:28;12.00;;;6.90;;
9188;SDS011;34313;50.780;6.084;2023-06-14T00:41:53;7.80;;;6.30;;
9188;SDS011;34313;50.780;6.084;2023-06-14T00:44:19;9.30;;;6.67;;
9188;SDS011;34313;50.780;6.084;2023-06-14T00:46:45;7.77;;;6.60;;
9188;SDS011;34313;50.780;6.084;2023-06-14T00:49:10;8.50;;;6.80;;
9188;SDS011;34313;50.780;6.084;2023-06-14T00:51:37;11.23;;;7.17;;
9188;SDS011;34313;50.780;6.084;2023-06-14T00:54:03;9.23;;;6.80;;
9188;SDS011;34313;50.780;6.084;2023-06-14T00:56:28;8.87;;;7.23;;
9188;SDS011;34313;50.780;6.084;2023-06-14T00:58:54;11.70;;;7.23;;
9188;SDS011;34313;50.780;6.084;2023-06-14T01:01:20;8.60;;;7.17;;
9188;SDS011;34313;50.780;6.084;2023-06-14T01:03:46;15.13;;;7.40;;
9188;SDS011;34313;50.780;6.084;2023-06-14T01:06:20;9.43;;;7.07;;
9188;SDS011;34313;50.780;6.084;2023-06-14T01:08:56;9.80;;;6.70;;
9188;SDS011;34313;50.780;6.084;2023-06-14T01:11:31;8.10;;;7.33;;
9188;SDS011;34313;50.780;6.084;2023-06-14T01:14:03;7.13;;;6.17;;
9188;SDS011;34313;50.780;6.084;2023-06-14T01:16:29;10.90;;;7.17;;
9188;SDS011;34313;50.780;6.084;2023-06-14T01:18:56;8.97;;;7.10;;
9188;SDS011;34313;50.780;6.084;2023-06-14T01:21:23;10.43;;;7.40;;
9188;SDS011;34313;50.780;6.084;2023-06-14T01:23:49;12.30;;;8.47;;
9188;SDS011;34313;50.780;6.084;2023-06-14T01:26:18;9.60;;;7.80;;
9188;SDS011;34313;50.780;6.084;2023-06-14T01:28:45;10.47;;;7.50;;
9188;SDS011;34313;50.780;6.084;2023-06-14T01:31:13;10.40;;;7.83;;
9188;SDS011;34313;50.780;6.084;2023-06-14T01:33:42;10.67;;;7.43;;
9188;SDS011;34313;50.780;6.084;2023-06-14T01:36:07;8.17;;;7.13;;
9188;SDS011;34313;50.780;6.084;2023-06-14T01:38:34;10.60;;;7.20;;
9188;SDS011;34313;50.780;6.084;2023-06-14T01:41:02;8.90;;;7.13;;
9188;SDS011;34313;50.780;6.084;2023-06-14T01:43:29;8.10;;;6.77;;
9188;SDS011;34313;50.780;6.084;2023-06-14T01:45:56;10.70;;;7.53;;
9188;SDS011;34313;50.780;6.084;2023-06-14T01:48:22;8.10;;;6.63;;
9188;SDS011;34313;50.780;6.084;2023-06-14T01:50:48;7.43;;;6.63;;
9188;SDS011;34313;50.780;6.084;2023-06-14T01:53:15;10.50;;;7.23;;
9188;SDS011;34313;50.780;6.084;2023-06-14T01:55:41;10.43;;;7.10;;
9188;SDS011;34313;50.780;6.084;2023-06-14T01:58:08;10.70;;;7.50;;
9188;SDS011;34313;50.780;6.084;2023-06-14T02:00:33;16.00;;;7.63;;
9188;SDS011;34313;50.780;6.084;2023-06-14T02:02:59;9.13;;;6.80;;
9188;SDS011;34313;50.780;6.084;2023-06-14T02:05:25;9.23;;;7.07;;
9188;SDS011;34313;50.780;6.084;2023-06-14T02:07:51;10.63;;;7.50;;
9188;SDS011;34313;50.780;6.084;2023-06-14T02:10:16;8.40;;;6.93;;
9188;SDS011;34313;50.780;6.084;2023-06-14T02:12:42;8.60;;;7.00;;
9188;SDS011;34313;50.780;6.084;2023-06-14T02:15:08;7.80;;;6.97;;
9188;SDS011;34313;50.780;6.084;2023-06-14T02:17:35;9.63;;;7.30;;
9188;SDS011;34313;50.780;6.084;2023-06-14T02:20:00;13.03;;;8.30;;
9188;SDS011;34313;50.780;6.084;2023-06-14T02:22:28;9.10;;;8.20;;
9188;SDS011;34313;50.780;6.084;2023-06-14T02:24:53;12.70;;;8.00;;
9188;SDS011;34313;50.780;6.084;2023-06-14T02:27:18;9.50;;;7.63;;
9188;SDS011;34313;50.780;6.084;2023-06-14T02:29:44;11.90;;;8.13;;
9188;SDS011;34313;50.780;6.084;2023-06-14T02:32:09;12.70;;;8.00;;
9188;SDS011;34313;50.780;6.084;2023-06-14T02:34:35;9.07;;;8.17;;
9188;SDS011;34313;50.780;6.084;2023-06-14T02:37:00;8.20;;;7.37;;
9188;SDS011;34313;50.780;6.084;2023-06-14T02:39:28;8.67;;;7.80;;
9188;SDS011;34313;50.780;6.084;2023-06-14T02:41:53;8.10;;;6.93;;
9188;SDS011;34313;50.780;6.084;2023-06-14T02:44:19;10.00;;;8.37;;
9188;SDS011;34313;50.780;6.084;2023-06-14T02:46:44;11.60;;;7.53;;
9188;SDS011;34313;50.780;6.084;2023-06-14T02:49:10;8.47;;;7.57;;
9188;SDS011;34313;50.780;6.084;2023-06-14T02:51:36;12.03;;;7.80;;
9188;SDS011;34313;50.780;6.084;2023-06-14T02:54:01;13.00;;;7.23;;
9188;SDS011;34313;50.780;6.084;2023-06-14T02:56:26;11.20;;;8.30;;
9188;SDS011;34313;50.780;6.084;2023-06-14T02:58:52;9.07;;;8.03;;
9188;SDS011;34313;50.780;6.084;2023-06-14T03:01:18;10.37;;;8.43;;
9188;SDS011;34313;50.780;6.084;2023-06-14T03:03:45;9.83;;;8.33;;
9188;SDS011;34313;50.780;6.084;2023-06-14T03:06:11;9.90;;;7.40;;
9188;SDS011;34313;50.780;6.084;2023-06-14T03:08:38;9.10;;;8.20;;
9188;SDS011;34313;50.780;6.084;2023-06-14T03:11:04;13.93;;;8.10;;
9188;SDS011;34313;50.780;6.084;2023-06-14T03:13:32;10.10;;;8.30;;
9188;SDS011;34313;50.780;6.084;2023-06-14T03:15:59;10.50;;;7.53;;
9188;SDS011;34313;50.780;6.084;2023-06-14T03:18:27;9.27;;;7.80;;
9188;SDS011;34313;50.780;6.084;2023-06-14T03:20:54;11.00;;;7.57;;
9188;SDS011;34313;50.780;6.084;2023-06-14T03:23:21;8.80;;;7.77;;
9188;SDS011;34313;50.780;6.084;2023-06-14T03:25:47;9.57;;;7.40;;
9188;SDS011;34313;50.780;6.084;2023-06-14T03:28:12;9.00;;;7.90;;
9188;SDS011;34313;50.780;6.084;2023-06-14T03:30:38;9.57;;;8.17;;
9188;SDS011;34313;50.780;6.084;2023-06-14T03:33:03;7.67;;;6.77;;
9188;SDS011;34313;50.780;6.084;2023-06-14T03:35:29;8.53;;;7.33;;
9188;SDS011;34313;50.780;6.084;2023-06-14T03:37:55;12.27;;;7.00;;
9188;SDS011;34313;50.780;6.084;2023-06-14T03:40:20;9.13;;;6.80;;
9188;SDS011;34313;50.780;6.084;2023-06-14T03:42:46;10.00;;;8.27;;
9188;SDS011;34313;50.780;6.084;2023-06-14T03:45:12;8.43;;;7.53;;
9188;SDS011;34313;50.780;6.084;2023-06-14T03:47:37;9.40;;;6.97;;
9188;SDS011;34313;50.780;6.084;2023-06-14T03:50:03;9.80;;;7.57;;
9188;SDS011;34313;50.780;6.084;2023-06-14T03:52:29;11.63;;;7.30;;
9188;SDS011;34313;50.780;6.084;2023-06-14T03:54:54;8.60;;;7.40;;
9188;SDS011;34313;50.780;6.084;2023-06-14T03:57:20;8.63;;;7.03;;
9188;SDS011;34313;50.780;6.084;2023-06-14T03:59:46;14.67;;;6.93;;
9188;SDS011;34313;50.780;6.084;2023-06-14T04:02:12;8.67;;;7.77;;
9188;SDS011;34313;50.780;6.084;2023-06-14T04:04:40;9.40;;;7.50;;
9188;SDS011;34313;50.780;6.084;2023-06-14T04:07:09;8.20;;;7.40;;
9188;SDS011;34313;50.780;6.084;2023-06-14T04:09:36;12.37;;;7.70;;
9188;SDS011;34313;50.780;6.084;2023-06-14T04:12:02;11.90;;;7.60;;
9188;SDS011;34313;50.780;6.084;2023-06-14T04:14:27;9.53;;;7.80;;
9188;SDS011;34313;50.780;6.084;2023-06-14T04:16:53;9.07;;;8.17;;
9188;SDS011;34313;50.780;6.084;2023-06-14T04:19:18;9.83;;;7.77;;
9188;SDS011;34313;50.780;6.084;2023-06-14T04:21:43;11.57;;;7.60;;
9188;SDS011;34313;50.780;6.084;2023-06-14T04:24:08;10.07;;;8.10;;
9188;SDS011;34313;50.780;6.084;2023-06-14T04:26:41;10.10;;;8.20;;
9188;SDS011;34313;50.780;6.084;2023-06-14T04:29:09;8.83;;;7.93;;
9188;SDS011;34313;50.780;6.084;2023-06-14T04:31:39;12.40;;;7.50;;
9188;SDS011;34313;50.780;6.084;2023-06-14T04:34:04;8.77;;;7.87;;
9188;SDS011;34313;50.780;6.084;2023-06-14T04:36:31;10.47;;;8.17;;
9188;SDS011;34313;50.780;6.084;2023-06-14T04:38:59;8.90;;;7.90;;
9188;SDS011;34313;50.780;6.084;2023-06-14T04:41:29;8.80;;;8.00;;
9188;SDS011;34313;50.780;6.084;2023-06-14T04:43:56;8.97;;;7.97;;
9188;SDS011;34313;50.780;6.084;2023-06-14T04:46:26;9.10;;;7.90;;
9188;SDS011;34313;50.780;6.084;2023-06-14T04:48:53;9.00;;;7.80;;
9188;SDS011;34313;50.780;6.084;2023-06-14T04:51:19;15.70;;;7.87;;
9188;SDS011;34313;50.780;6.084;2023-06-14T04:53:47;11.03;;;8.00;;
9188;SDS011;34313;50.780;6.084;2023-06-14T04:56:14;8.30;;;7.50;;
9188;SDS011;34313;50.780;6.084;2023-06-14T04:58:40;12.63;;;7.17;;
9188;SDS011;34313;50.780;6.084;2023-06-14T05:01:05;8.20;;;6.40;;
9188;SDS011;34313;50.780;6.084;2023-06-14T05:03:30;7.37;;;6.20;;
9188;SDS011;34313;50.780;6.084;2023-06-14T05:05:56;9.07;;;6.43;;
9188;SDS011;34313;50.780;6.084;2023-06-14T05:08:21;7.50;;;6.60;;
9188;SDS011;34313;50.780;6.084;2023-06-14T05:10:50;6.80;;;6.10;;
9188;SDS011;34313;50.780;6.084;2023-06-14T05:13:16;10.43;;;7.03;;
9188;SDS011;34313;50.780;6.084;2023-06-14T05:15:42;9.25;;;7.95;;
9188;SDS011;34313;50.780;6.084;2023-06-14T05:18:07;9.07;;;7.07;;
9188;SDS011;34313;50.780;6.084;2023-06-14T05:20:34;7.13;;;6.53;;
9188;SDS011;34313;50.780;6.084;2023-06-14T05:23:01;12.82;;;6.05;;
9188;SDS011;34313;50.780;6.084;2023-06-14T05:25:27;9.00;;;6.57;;
9188;SDS011;34313;50.780;6.084;2023-06-14T05:27:53;7.38;;;6.45;;
9188;SDS011;34313;50.780;6.084;2023-06-14T05:30:18;6.45;;;5.88;;
9188;SDS011;34313;50.780;6.084;2023-06-14T05:32:44;7.03;;;6.40;;
9188;SDS011;34313;50.780;6.084;2023-06-14T05:35:09;9.23;;;6.68;;
9188;SDS011;34313;50.780;6.084;2023-06-14T05:37:35;12.10;;;5.78;;
9188;SDS011;34313;50.780;6.084;2023-06-14T05:40:01;7.20;;;6.03;;
9188;SDS011;34313;50.780;6.084;2023-06-14T05:42:29;9.13;;;5.78;;
9188;SDS011;34313;50.780;6.084;2023-06-14T05:44:54;7.18;;;6.57;;
9188;SDS011;34313;50.780;6.084;2023-06-14T05:47:20;6.07;;;5.22;;
9188;SDS011;34313;50.780;6.084;2023-06-14T05:49:46;7.03;;;6.00;;
9188;SDS011;34313;50.780;6.084;2023-06-14T05:52:11;6.53;;;5.93;;
9188;SDS011;34313;50.780;6.084;2023-06-14T05:54:38;8.95;;;6.28;;
9188;SDS011;34313;50.780;6.084;2023-06-14T05:57:03;6.30;;;5.70;;
9188;SDS011;34313;50.780;6.084;2023-06-14T05:59:30;7.50;;;5.22;;
9188;SDS011;34313;50.780;6.084;2023-06-14T06:01:55;6.28;;;5.55;;
9188;SDS011;34313;50.780;6.084;2023-06-14T06:04:21;6.47;;;5.88;;
9188;SDS011;34313;50.780;6.084;2023-06-14T06:06:46;7.13;;;5.90;;
9188;SDS011;34313;50.780;6.084;2023-06-14T06:09:12;17.40;;;6.38;;
9188;SDS011;34313;50.780;6.084;2023-06-14T06:11:39;6.60;;;6.00;;
9188;SDS011;34313;50.780;6.084;2023-06-14T06:14:05;7.43;;;5.75;;
9188;SDS011;34313;50.780;6.084;2023-06-14T06:16:30;7.20;;;6.15;;
9188;SDS011;34313;50.780;6.084;2023-06-14T06:18:55;10.15;;;6.57;;
9188;SDS011;34313;50.780;6.084;2023-06-14T06:21:21;5.82;;;5.32;;
9188;SDS011;34313;50.780;6.084;2023-06-14T06:23:47;10.60;;;6.07;;
9188;SDS011;34313;50.780;6.084;2023-06-14T06:26:13;5.72;;;5.05;;
9188;SDS011;34313;50.780;6.084;2023-06-14T06:28:39;11.45;;;5.70;;
9188;SDS011;34313;50.780;6.084;2023-06-14T06:31:05;6.13;;;5.47;;
9188;SDS011;34313;50.780;6.084;2023-06-14T06:33:30;6.75;;;5.60;;
9188;SDS011;34313;50.780;6.084;2023-06-14T06:35:55;6.90;;;5.50;;
9188;SDS011;34313;50.780;6.084;2023-06-14T06:38:21;8.70;;;5.23;;
9188;SDS011;34313;50.780;6.084;2023-06-14T06:40:46;6.33;;;5.63;;
9188;SDS011;34313;50.780;6.084;2023-06-14T06:43:12;8.57;;;5.80;;
9188;SDS011;34313;50.780;6.084;2023-06-14T06:45:39;9.10;;;5.60;;
9188;SDS011;34313;50.780;6.084;2023-06-14T06:48:05;7.05;;;5.40;;
9188;SDS011;34313;50.780;6.084;2023-06-14T06:50:30;10.65;;;6.13;;
9188;SDS011;34313;50.780;6.084;2023-06-14T06:52:56;6.57;;;5.80;;
9188;SDS011;34313;50.780;6.084;2023-06-14T06:55:21;8.07;;;4.57;;
9188;SDS011;34313;50.780;6.084;2023-06-14T06:57:47;7.72;;;5.45;;
9188;SDS011;34313;50.780;6.084;2023-06-14T07:00:12;7.75;;;4.90;;
9188;SDS011;34313;50.780;6.084;2023-06-14T07:02:37;6.63;;;4.93;;
9188;SDS011;34313;50.780;6.084;2023-06-14T07:05:03;9.20;;;5.70;;
9188;SDS011;34313;50.780;6.084;2023-06-14T07:07:29;11.27;;;5.00;;
9188;SDS011;34313;50.780;6.084;2023-06-14T07:09:54;8.32;;;4.90;;
9188;SDS011;34313;50.780;6.084;2023-06-14T07:12:22;12.75;;;4.82;;
9188;SDS011;34313;50.780;6.084;2023-06-14T07:14:47;9.57;;;4.20;;
9188;SDS011;34313;50.780;6.084;2023-06-14T07:17:13;6.55;;;4.55;;
9188;SDS011;34313;50.780;6.084;2023-06-14T07:19:38;5.72;;;4.85;;
9188;SDS011;34313;50.780;6.084;2023-06-14T07:22:03;6.80;;;4.47;;
9188;SDS011;34313;50.780;6.084;2023-06-14T07:24:29;12.88;;;5.18;;
9188;SDS011;34313;50.780;6.084;2023-06-14T07:26:54;6.15;;;4.95;;
9188;SDS011;34313;50.780;6.084;2023-06-14T07:29:21;9.05;;;4.05;;
9188;SDS011;34313;50.780;6.084;2023-06-14T07:31:46;4.57;;;4.13;;
9188;SDS011;34313;50.780;6.084;2023-06-14T07:34:15;9.45;;;4.78;;
9188;SDS011;34313;50.780;6.084;2023-06-14T07:36:40;6.43;;;3.97;;
9188;SDS011;34313;50.780;6.084;2023-06-14T07:39:06;6.50;;;4.60;;
9188;SDS011;34313;50.780;6.084;2023-06-14T07:41:31;6.00;;;4.68;;
9188;SDS011;34313;50.780;6.084;2023-06-14T07:43:57;8.25;;;4.40;;
9188;SDS011;34313;50.780;6.084;2023-06-14T07:46:23;6.78;;;4.47;;
9188;SDS011;34313;50.780;6.084;2023-06-14T07:48:48;9.25;;;5.00;;
9188;SDS011;34313;50.780;6.084;2023-06-14T07:51:14;6.57;;;4.22;;
9188;SDS011;34313;50.780;6.084;2023-06-14T07:53:39;7.82;;;5.15;;
9188;SDS011;34313;50.780;6.084;2023-06-14T07:56:06;9.57;;;4.25;;
9188;SDS011;34313;50.780;6.084;2023-06-14T07:58:32;12.88;;;4.28;;
9188;SDS011;34313;50.780;6.084;2023-06-14T08:00:57;10.38;;;4.43;;
9188;SDS011;34313;50.780;6.084;2023-06-14T08:03:23;9.18;;;3.55;;
9188;SDS011;34313;50.780;6.084;2023-06-14T08:05:49;7.93;;;4.38;;
9188;SDS011;34313;50.780;6.084;2023-06-14T08:08:14;5.80;;;4.10;;
9188;SDS011;34313;50.780;6.084;2023-06-14T08:10:45;9.82;;;3.97;;
9188;SDS011;34313;50.780;6.084;2023-06-14T08:13:10;6.28;;;3.67;;
9188;SDS011;34313;50.780;6.084;2023-06-14T08:15:36;5.10;;;3.70;;
9188;SDS011;34313;50.780;6.084;2023-06-14T08:18:01;10.25;;;3.63;;
9188;SDS011;34313;50.780;6.084;2023-06-14T08:20:27;4.80;;;3.40;;
9188;SDS011;34313;50.780;6.084;2023-06-14T08:22:56;9.93;;;3.80;;
9188;SDS011;34313;50.780;6.084;2023-06-14T08:25:22;8.77;;;4.28;;
9188;SDS011;34313;50.780;6.084;2023-06-14T08:27:48;5.63;;;4.28;;
9188;SDS011;34313;50.780;6.084;2023-06-14T08:30:13;7.95;;;3.65;;
9188;SDS011;34313;50.780;6.084;2023-06-14T08:32:46;6.90;;;3.55;;
9188;SDS011;34313;50.780;6.084;2023-06-14T08:35:12;5.90;;;3.90;;
9188;SDS011;34313;50.780;6.084;2023-06-14T08:37:43;6.75;;;3.35;;
9188;SDS011;34313;50.780;6.084;2023-06-14T08:40:42;7.68;;;3.45;;
9188;SDS011;34313;50.780;6.084;2023-06-14T08:43:10;5.15;;;3.80;;
9188;SDS011;34313;50.780;6.084;2023-06-14T08:45:35;6.90;;;3.55;;
9188;SDS011;34313;50.780;6.084;2023-06-14T08:48:07;4.18;;;3.50;;
9188;SDS011;34313;50.780;6.084;2023-06-14T08:50:34;9.80;;;3.63;;
9188;SDS011;34313;50.780;6.084;2023-06-14T08:53:01;4.53;;;3.15;;
9188;SDS011;34313;50.780;6.084;2023-06-14T08:55:28;8.43;;;3.47;;
9188;SDS011;34313;50.780;6.084;2023-06-14T08:57:55;11.82;;;3.78;;
9188;SDS011;34313;50.780;6.084;2023-06-14T09:00:25;3.97;;;3.15;;
9188;SDS011;34313;50.780;6.084;2023-06-14T09:02:59;8.80;;;2.85;;
9188;SDS011;34313;50.780;6.084;2023-06-14T09:05:25;7.15;;;3.45;;
9188;SDS011;34313;50.780;6.084;2023-06-14T09:07:51;18.87;;;3.70;;
9188;SDS011;34313;50.780;6.084;2023-06-14T09:10:21;9.00;;;3.27;;
9188;SDS011;34313;50.780;6.084;2023-06-14T09:12:47;3.30;;;2.80;;
9188;SDS011;34313;50.780;6.084;2023-06-14T09:15:13;4.10;;;2.60;;
9188;SDS011;34313;50.780;6.084;2023-06-14T09:17:39;8.40;;;3.00;;
9188;SDS011;34313;50.780;6.084;2023-06-14T09:20:05;10.10;;;3.33;;
9188;SDS011;34313;50.780;6.084;2023-06-14T09:22:33;11.13;;;2.83;;
9188;SDS011;34313;50.780;6.084;2023-06-14T09:24:58;4.25;;;2.72;;
9188;SDS011;34313;50.780;6.084;2023-06-14T09:27:27;8.70;;;3.70;;
9188;SDS011;34313;50.780;6.084;2023-06-14T09:29:53;10.00;;;2.73;;
9188;SDS011;34313;50.780;6.084;2023-06-14T09:32:18;11.93;;;3.87;;
9188;SDS011;34313;50.780;6.084;2023-06-14T09:34:45;6.60;;;3.10;;
9188;SDS011;34313;50.780;6.084;2023-06-14T09:37:11;12.40;;;3.73;;
9188;SDS011;34313;50.780;6.084;2023-06-14T09:39:57;4.40;;;3.17;;
9188;SDS011;34313;50.780;6.084;2023-06-14T09:42:25;4.00;;;2.83;;
9188;SDS011;34313;50.780;6.084;2023-06-14T09:44:55;9.10;;;3.40;;
9188;SDS011;34313;50.780;6.084;2023-06-14T09:47:22;5.00;;;3.10;;
9188;SDS011;34313;50.780;6.084;2023-06-14T09:49:50;11.30;;;3.37;;
9188;SDS011;34313;50.780;6.084;2023-06-14T09:52:19;11.33;;;4.40;;
9188;SDS011;34313;50.780;6.084;2023-06-14T09:54:45;5.93;;;3.20;;
9188;SDS011;34313;50.780;6.084;2023-06-14T09:57:14;5.30;;;2.77;;
9188;SDS011;34313;50.780;6.084;2023-06-14T09:59:44;6.17;;;2.70;;
9188;SDS011;34313;50.780;6.084;2023-06-14T10:04:46;16.07;;;3.67;;
9188;SDS011;34313;50.780;6.084;2023-06-14T10:07:17;9.03;;;3.73;;
9188;SDS011;34313;50.780;6.084;2023-06-14T10:09:45;4.43;;;3.20;;
9188;SDS011;34313;50.780;6.084;2023-06-14T10:12:15;4.23;;;3.40;;
9188;SDS011;34313;50.780;6.084;2023-06-14T10:14:46;5.77;;;2.93;;
9188;SDS011;34313;50.780;6.084;2023-06-14T10:17:17;5.23;;;3.20;;
9188;SDS011;34313;50.780;6.084;2023-06-14T10:20:03;8.20;;;3.13;;
9188;SDS011;34313;50.780;6.084;2023-06-14T10:22:43;9.47;;;3.40;;
9188;SDS011;34313;50.780;6.084;2023-06-14T10:25:25;6.03;;;2.80;;
9188;SDS011;34313;50.780;6.084;2023-06-14T10:31:01;4.63;;;2.70;;
9188;SDS011;34313;50.780;6.084;2023-06-14T10:33:34;5.00;;;3.07;;
9188;SDS011;34313;50.780;6.084;2023-06-14T10:38:54;5.10;;;2.50;;
9188;SDS011;34313;50.780;6.084;2023-06-14T10:41:27;4.17;;;2.23;;
9188;SDS011;34313;50.780;6.084;2023-06-14T10:46:37;4.00;;;2.40;;
9188;SDS011;34313;50.780;6.084;2023-06-14T10:49:03;4.80;;;2.50;;
9188;SDS011;34313;50.780;6.084;2023-06-14T10:51:44;14.63;;;2.20;;
9188;SDS011;34313;50.780;6.084;2023-06-14T10:54:14;2.53;;;2.20;;
9188;SDS011;34313;50.780;6.084;2023-06-14T10:59:16;4.30;;;2.20;;
9188;SDS011;34313;50.780;6.084;2023-06-14T11:04:14;2.80;;;1.70;;
9188;SDS011;34313;50.780;6.084;2023-06-14T11:06:49;2.20;;;2.00;;
9188;SDS011;34313;50.780;6.084;2023-06-14T11:11:44;3.50;;;2.07;;
9188;SDS011;34313;50.780;6.084;2023-06-14T11:14:11;2.30;;;1.80;;
9188;SDS011;34313;50.780;6.084;2023-06-14T11:16:36;5.53;;;1.87;;
9188;SDS011;34313;50.780;6.084;2023-06-14T11:19:02;2.93;;;1.77;;
9188;SDS011;34313;50.780;6.084;2023-06-14T11:21:32;3.13;;;1.83;;
9188;SDS011;34313;50.780;6.084;2023-06-14T11:23:58;3.53;;;3.23;;
9188;SDS011;34313;50.780;6.084;2023-06-14T11:26:24;4.30;;;2.30;;
9188;SDS011;34313;50.780;6.084;2023-06-14T11:28:57;4.03;;;2.80;;
9188;SDS011;34313;50.780;6.084;2023-06-14T11:31:24;3.20;;;2.47;;
9188;SDS011;34313;50.780;6.084;2023-06-14T11:33:53;3.87;;;2.23;;
9188;SDS011;34313;50.780;6.084;2023-06-14T11:36:19;3.07;;;2.20;;
9188;SDS011;34313;50.780;6.084;2023-06-14T11:38:44;4.80;;;2.60;;
9188;SDS011;34313;50.780;6.084;2023-06-14T11:41:10;4.33;;;2.60;;
9188;SDS011;34313;50.780;6.084;2023-06-14T11:43:35;4.47;;;2.50;;
9188;SDS011;34313;50.780;6.084;2023-06-14T11:46:01;8.00;;;2.37;;
9188;SDS011;34313;50.780;6.084;2023-06-14T11:48:40;3.93;;;2.17;;
9188;SDS011;34313;50.780;6.084;2023-06-14T11:51:06;6.30;;;2.57;;
9188;SDS011;34313;50.780;6.084;2023-06-14T11:53:32;14.37;;;2.67;;
9188;SDS011;34313;50.780;6.084;2023-06-14T11:55:58;4.53;;;2.57;;
9188;SDS011;34313;50.780;6.084;2023-06-14T11:58:23;4.17;;;2.77;;
9188;SDS011;34313;50.780;6.084;2023-06-14T12:00:50;6.87;;;2.70;;
9188;SDS011;34313;50.780;6.084;2023-06-14T12:03:16;7.90;;;2.63;;
9188;SDS011;34313;50.780;6.084;2023-06-14T12:05:42;5.00;;;2.20;;
9188;SDS011;34313;50.780;6.084;2023-06-14T12:08:08;7.97;;;2.43;;
9188;SDS011;34313;50.780;6.084;2023-06-14T12:10:40;5.07;;;2.30;;
9188;SDS011;34313;50.780;6.084;2023-06-14T12:13:08;6.43;;;2.43;;
9188;SDS011;34313;50.780;6.084;2023-06-14T12:15:34;3.73;;;2.40;;
9188;SDS011;34313;50.780;6.084;2023-06-14T12:17:59;3.20;;;2.10;;
9188;SDS011;34313;50.780;6.084;2023-06-14T12:20:28;4.37;;;2.30;;
9188;SDS011;34313;50.780;6.084;2023-06-14T12:22:56;6.10;;;2.10;;
9188;SDS011;34313;50.780;6.084;2023-06-14T12:25:33;8.37;;;2.47;;
9188;SDS011;34313;50.780;6.084;2023-06-14T12:28:04;7.60;;;2.40;;
9188;SDS011;34313;50.780;6.084;2023-06-14T12:30:32;5.67;;;2.10;;
9188;SDS011;34313;50.780;6.084;2023-06-14T12:32:58;7.27;;;1.90;;
9188;SDS011;34313;50.780;6.084;2023-06-14T12:35:23;6.20;;;2.57;;
9188;SDS011;34313;50.780;6.084;2023-06-14T12:37:48;3.43;;;2.13;;
9188;SDS011;34313;50.780;6.084;2023-06-14T12:40:14;8.33;;;2.60;;
9188;SDS011;34313;50.780;6.084;2023-06-14T12:42:40;7.40;;;2.60;;
9188;SDS011;34313;50.780;6.084;2023-06-14T12:45:06;4.43;;;2.10;;
9188;SDS011;34313;50.780;6.084;2023-06-14T12:47:31;14.20;;;2.60;;
9188;SDS011;34313;50.780;6.084;2023-06-14T12:49:57;5.13;;;2.23;;
9188;SDS011;34313;50.780;6.084;2023-06-14T12:52:22;5.37;;;2.33;;
9188;SDS011;34313;50.780;6.084;2023-06-14T12:54:47;5.07;;;2.30;;
9188;SDS011;34313;50.780;6.084;2023-06-14T12:57:13;3.73;;;2.10;;
9188;SDS011;34313;50.780;6.084;2023-06-14T12:59:38;5.97;;;2.40;;
9188;SDS011;34313;50.780;6.084;2023-06-14T13:02:13;4.70;;;2.23;;
9188;SDS011;34313;50.780;6.084;2023-06-14T13:04:39;3.77;;;2.70;;
9188;SDS011;34313;50.780;6.084;2023-06-14T13:07:04;5.30;;;2.57;;
9188;SDS011;34313;50.780;6.084;2023-06-14T13:09:30;4.53;;;2.50;;
9188;SDS011;34313;50.780;6.084;2023-06-14T13:11:56;4.00;;;2.27;;
9188;SDS011;34313;50.780;6.084;2023-06-14T13:14:21;4.87;;;2.13;;
9188;SDS011;34313;50.780;6.084;2023-06-14T13:16:47;7.10;;;2.50;;
9188;SDS011;34313;50.780;6.084;2023-06-14T13:19:12;2.80;;;1.70;;
9188;SDS011;34313;50.780;6.084;2023-06-14T13:21:37;5.53;;;2.20;;
9188;SDS011;34313;50.780;6.084;2023-06-14T13:24:02;4.70;;;2.30;;
9188;SDS011;34313;50.780;6.084;2023-06-14T13:26:28;5.93;;;2.40;;
9188;SDS011;34313;50.780;6.084;2023-06-14T13:28:53;4.80;;;2.27;;
9188;SDS011;34313;50.780;6.084;2023-06-14T13:31:19;4.63;;;1.97;;
9188;SDS011;34313;50.780;6.084;2023-06-14T13:33:44;8.10;;;2.43;;
9188;SDS011;34313;50.780;6.084;2023-06-14T13:36:09;7.03;;;2.20;;
9188;SDS011;34313;50.780;6.084;2023-06-14T13:38:35;3.00;;;2.23;;
9188;SDS011;34313;50.780;6.084;2023-06-14T13:41:00;6.20;;;2.20;;
9188;SDS011;34313;50.780;6.084;2023-06-14T13:43:26;6.40;;;2.73;;
9188;SDS011;34313;50.780;6.084;2023-06-14T13:45:51;2.43;;;1.97;;
9188;SDS011;34313;50.780;6.084;2023-06-14T13:48:17;2.60;;;1.90;;
9188;SDS011;34313;50.780;6.084;2023-06-14T13:50:43;6.20;;;2.67;;
9188;SDS011;34313;50.780;6.084;2023-06-14T13:53:09;4.70;;;2.50;;
9188;SDS011;34313;50.780;6.084;2023-06-14T13:55:34;4.30;;;2.40;;
9188;SDS011;34313;50.780;6.084;2023-06-14T13:57:59;3.17;;;2.50;;
9188;SDS011;34313;50.780;6.084;2023-06-14T14:00:25;4.00;;;2.40;;
9188;SDS011;34313;50.780;6.084;2023-06-14T14:02:51;3.77;;;2.03;;
9188;SDS011;34313;50.780;6.084;2023-06-14T14:05:16;6.87;;;2.37;;
9188;SDS011;34313;50.780;6.084;2023-06-14T14:07:41;10.73;;;2.40;;
9188;SDS011;34313;50.780;6.084;2023-06-14T14:10:07;3.97;;;2.70;;
9188;SDS011;34313;50.780;6.084;2023-06-14T14:12:33;2.90;;;2.37;;
9188;SDS011;34313;50.780;6.084;2023-06-14T14:14:58;8.50;;;3.20;;
9188;SDS011;34313;50.780;6.084;2023-06-14T14:17:24;6.57;;;2.50;;
9188;SDS011;34313;50.780;6.084;2023-06-14T14:19:49;6.07;;;2.60;;
9188;SDS011;34313;50.780;6.084;2023-06-14T14:22:15;6.90;;;2.43;;
9188;SDS011;34313;50.780;6.084;2023-06-14T14:24:40;8.97;;;2.60;;
9188;SDS011;34313;50.780;6.084;2023-06-14T14:27:05;4.07;;;2.70;;
9188;SDS011;34313;50.780;6.084;2023-06-14T14:29:31;3.37;;;2.43;;
9188;SDS011;34313;50.780;6.084;2023-06-14T14:31:57;4.70;;;2.50;;
9188;SDS011;34313;50.780;6.084;2023-06-14T14:34:22;4.70;;;2.73;;
9188;SDS011;34313;50.780;6.084;2023-06-14T14:36:49;4.93;;;2.70;;
9188;SDS011;34313;50.780;6.084;2023-06-14T14:39:15;5.30;;;2.60;;
9188;SDS011;34313;50.780;6.084;2023-06-14T14:41:40;5.53;;;2.80;;
9188;SDS011;34313;50.780;6.084;2023-06-14T14:44:06;3.87;;;2.77;;
9188;SDS011;34313;50.780;6.084;2023-06-14T14:46:31;5.13;;;2.30;;
9188;SDS011;34313;50.780;6.084;2023-06-14T14:48:58;5.07;;;2.60;;
9188;SDS011;34313;50.780;6.084;2023-06-14T14:51:24;6.17;;;2.50;;
9188;SDS011;34313;50.780;6.084;2023-06-14T14:53:49;9.23;;;2.70;;
9188;SDS011;34313;50.780;6.084;2023-06-14T14:56:14;4.00;;;2.67;;
9188;SDS011;34313;50.780;6.084;2023-06-14T14:58:40;3.13;;;2.70;;
9188;SDS011;34313;50.780;6.084;2023-06-14T15:01:05;7.60;;;2.80;;
9188;SDS011;34313;50.780;6.084;2023-06-14T15:03:31;4.10;;;2.20;;
9188;SDS011;34313;50.780;6.084;2023-06-14T15:05:57;3.90;;;2.40;;
9188;SDS011;34313;50.780;6.084;2023-06-14T15:08:22;5.07;;;2.47;;
9188;SDS011;34313;50.780;6.084;2023-06-14T15:10:48;4.87;;;2.30;;
9188;SDS011;34313;50.780;6.084;2023-06-14T15:13:13;2.30;;;2.10;;